Llandysul, United Kingdom
Current Conditions -  °F | °C
As of 1:50 AM on Monday 26 Jan 2015 (Local Time) from EGOP Reporting Station
Broken Clouds Broken Clouds  
Wind Chill: 42°   Ceiling: 2300
Heat Index: 48°   Visibility: 4mi
Dew Point: 48°   Wind: 18mph
Humidity: 100%   Direction: 230°SW
Pressure: 30.21"   Gusts: NA
Location:  52.04°N, 4.31°W
Report Text: EGOP 260150Z AUTO 23016KT 6000 // FEW009/// SCT016/// BKN023/// 09/09 Q1023
Loading
Personal Weather Stations






























Interactive Weather Map New forecast layout! Learn more

10-Day Weather Forecast

Advertisements
Track Severe Weather on mobile